sensor_id;sensor_type;location;lat;lon;timestamp;temperature;humidity
49373;DHT22;44113;38.408;-122.974;2022-08-30T00:01:29;25.60;55.80
49373;DHT22;44113;38.408;-122.974;2022-08-30T00:03:57;25.70;55.60
49373;DHT22;44113;38.408;-122.974;2022-08-30T00:06:25;25.70;56.00
49373;DHT22;44113;38.408;-122.974;2022-08-30T00:08:53;25.70;55.70
49373;DHT22;44113;38.408;-122.974;2022-08-30T00:11:24;25.70;55.60
49373;DHT22;44113;38.408;-122.974;2022-08-30T00:13:54;25.70;55.70
49373;DHT22;44113;38.408;-122.974;2022-08-30T00:16:22;25.70;55.70
49373;DHT22;44113;38.408;-122.974;2022-08-30T00:18:49;25.70;55.80
49373;DHT22;44113;38.408;-122.974;2022-08-30T00:21:15;25.70;55.70
49373;DHT22;44113;38.408;-122.974;2022-08-30T00:23:42;25.70;55.70
49373;DHT22;44113;38.408;-122.974;2022-08-30T00:26:08;25.70;55.60
49373;DHT22;44113;38.408;-122.974;2022-08-30T00:28:35;25.70;55.80
49373;DHT22;44113;38.408;-122.974;2022-08-30T00:31:03;25.70;55.90
49373;DHT22;44113;38.408;-122.974;2022-08-30T00:33:30;25.70;55.80
49373;DHT22;44113;38.408;-122.974;2022-08-30T00:35:56;25.70;55.70
49373;DHT22;44113;38.408;-122.974;2022-08-30T00:38:23;25.70;55.70
49373;DHT22;44113;38.408;-122.974;2022-08-30T00:40:50;25.70;55.80
49373;DHT22;44113;38.408;-122.974;2022-08-30T00:43:21;25.70;55.70
49373;DHT22;44113;38.408;-122.974;2022-08-30T00:45:48;25.70;55.70
49373;DHT22;44113;38.408;-122.974;2022-08-30T00:48:15;25.70;55.50
49373;DHT22;44113;38.408;-122.974;2022-08-30T00:50:50;25.70;55.40
49373;DHT22;44113;38.408;-122.974;2022-08-30T00:53:28;25.80;55.90
49373;DHT22;44113;38.408;-122.974;2022-08-30T00:55:57;25.80;55.90
49373;DHT22;44113;38.408;-122.974;2022-08-30T00:58:28;25.90;55.60
49373;DHT22;44113;38.408;-122.974;2022-08-30T01:00:59;25.90;55.50
49373;DHT22;44113;38.408;-122.974;2022-08-30T01:03:27;26.00;55.60
49373;DHT22;44113;38.408;-122.974;2022-08-30T01:05:56;26.00;55.60
49373;DHT22;44113;38.408;-122.974;2022-08-30T01:08:23;26.00;55.70
49373;DHT22;44113;38.408;-122.974;2022-08-30T01:10:53;25.90;55.50
49373;DHT22;44113;38.408;-122.974;2022-08-30T01:13:21;25.90;55.80
49373;DHT22;44113;38.408;-122.974;2022-08-30T01:15:49;25.90;55.40
49373;DHT22;44113;38.408;-122.974;2022-08-30T01:18:17;25.90;55.50
49373;DHT22;44113;38.408;-122.974;2022-08-30T01:23:39;25.80;55.40
49373;DHT22;44113;38.408;-122.974;2022-08-30T01:26:08;25.80;55.60
49373;DHT22;44113;38.408;-122.974;2022-08-30T01:28:35;25.80;55.60
49373;DHT22;44113;38.408;-122.974;2022-08-30T01:31:02;25.80;55.50
49373;DHT22;44113;38.408;-122.974;2022-08-30T01:33:29;25.80;55.70
49373;DHT22;44113;38.408;-122.974;2022-08-30T01:35:59;25.80;55.80
49373;DHT22;44113;38.408;-122.974;2022-08-30T01:38:36;25.70;55.90
49373;DHT22;44113;38.408;-122.974;2022-08-30T01:41:29;25.70;55.70
49373;DHT22;44113;38.408;-122.974;2022-08-30T01:43:59;25.70;55.70
49373;DHT22;44113;38.408;-122.974;2022-08-30T01:46:29;25.80;55.80
49373;DHT22;44113;38.408;-122.974;2022-08-30T01:48:57;25.70;55.80
49373;DHT22;44113;38.408;-122.974;2022-08-30T01:51:26;25.70;55.80
49373;DHT22;44113;38.408;-122.974;2022-08-30T01:53:53;25.60;56.00
49373;DHT22;44113;38.408;-122.974;2022-08-30T01:56:22;25.60;56.00
49373;DHT22;44113;38.408;-122.974;2022-08-30T01:58:49;25.60;56.00
49373;DHT22;44113;38.408;-122.974;2022-08-30T02:01:18;25.60;56.10
49373;DHT22;44113;38.408;-122.974;2022-08-30T02:03:48;25.60;56.10
49373;DHT22;44113;38.408;-122.974;2022-08-30T02:06:17;25.60;56.10
49373;DHT22;44113;38.408;-122.974;2022-08-30T02:08:46;25.50;56.10
49373;DHT22;44113;38.408;-122.974;2022-08-30T02:11:14;25.60;56.20
49373;DHT22;44113;38.408;-122.974;2022-08-30T02:13:42;25.40;56.10
49373;DHT22;44113;38.408;-122.974;2022-08-30T02:16:13;25.50;56.20
49373;DHT22;44113;38.408;-122.974;2022-08-30T02:18:41;25.60;56.10
49373;DHT22;44113;38.408;-122.974;2022-08-30T02:21:09;25.60;56.20
49373;DHT22;44113;38.408;-122.974;2022-08-30T02:23:37;25.60;56.20
49373;DHT22;44113;38.408;-122.974;2022-08-30T02:26:04;25.50;56.40
49373;DHT22;44113;38.408;-122.974;2022-08-30T02:28:30;25.50;56.30
49373;DHT22;44113;38.408;-122.974;2022-08-30T02:30:57;25.40;56.40
49373;DHT22;44113;38.408;-122.974;2022-08-30T02:33:23;25.40;56.50
49373;DHT22;44113;38.408;-122.974;2022-08-30T02:35:50;25.40;56.40
49373;DHT22;44113;38.408;-122.974;2022-08-30T02:38:17;25.40;56.70
49373;DHT22;44113;38.408;-122.974;2022-08-30T02:40:43;25.30;56.30
49373;DHT22;44113;38.408;-122.974;2022-08-30T02:43:11;25.40;56.30
49373;DHT22;44113;38.408;-122.974;2022-08-30T02:45:38;25.40;56.30
49373;DHT22;44113;38.408;-122.974;2022-08-30T02:48:05;25.40;56.30
49373;DHT22;44113;38.408;-122.974;2022-08-30T02:50:31;25.40;56.10
49373;DHT22;44113;38.408;-122.974;2022-08-30T02:52:58;25.40;56.40
49373;DHT22;44113;38.408;-122.974;2022-08-30T02:55:25;25.40;56.20
49373;DHT22;44113;38.408;-122.974;2022-08-30T02:57:52;25.40;56.50
49373;DHT22;44113;38.408;-122.974;2022-08-30T03:00:19;25.40;56.70
49373;DHT22;44113;38.408;-122.974;2022-08-30T03:02:47;25.40;57.50
49373;DHT22;44113;38.408;-122.974;2022-08-30T03:05:15;25.40;57.00
49373;DHT22;44113;38.408;-122.974;2022-08-30T03:07:42;25.40;56.90
49373;DHT22;44113;38.408;-122.974;2022-08-30T03:10:10;25.30;57.00
49373;DHT22;44113;38.408;-122.974;2022-08-30T03:12:37;25.40;57.40
49373;DHT22;44113;38.408;-122.974;2022-08-30T03:15:05;25.40;57.50
49373;DHT22;44113;38.408;-122.974;2022-08-30T03:17:32;25.40;57.60
49373;DHT22;44113;38.408;-122.974;2022-08-30T03:19:59;25.40;57.30
49373;DHT22;44113;38.408;-122.974;2022-08-30T03:22:27;25.40;57.40
49373;DHT22;44113;38.408;-122.974;2022-08-30T03:24:54;25.40;57.30
49373;DHT22;44113;38.408;-122.974;2022-08-30T03:27:26;25.40;57.20
49373;DHT22;44113;38.408;-122.974;2022-08-30T03:29:53;25.30;57.30
49373;DHT22;44113;38.408;-122.974;2022-08-30T03:32:20;25.30;57.60
49373;DHT22;44113;38.408;-122.974;2022-08-30T03:34:46;25.30;57.60
49373;DHT22;44113;38.408;-122.974;2022-08-30T03:37:13;25.20;57.80
49373;DHT22;44113;38.408;-122.974;2022-08-30T03:39:39;25.20;57.80
49373;DHT22;44113;38.408;-122.974;2022-08-30T03:42:07;25.10;58.00
49373;DHT22;44113;38.408;-122.974;2022-08-30T03:44:33;25.10;58.10
49373;DHT22;44113;38.408;-122.974;2022-08-30T03:47:00;25.10;57.90
49373;DHT22;44113;38.408;-122.974;2022-08-30T03:49:26;25.20;58.10
49373;DHT22;44113;38.408;-122.974;2022-08-30T03:51:53;25.10;57.60
49373;DHT22;44113;38.408;-122.974;2022-08-30T03:54:20;25.10;57.80
49373;DHT22;44113;38.408;-122.974;2022-08-30T03:56:47;25.20;57.70
49373;DHT22;44113;38.408;-122.974;2022-08-30T03:59:13;25.20;57.60
49373;DHT22;44113;38.408;-122.974;2022-08-30T04:01:40;25.10;57.50
49373;DHT22;44113;38.408;-122.974;2022-08-30T04:04:07;25.10;57.50
49373;DHT22;44113;38.408;-122.974;2022-08-30T04:06:34;25.10;57.50
49373;DHT22;44113;38.408;-122.974;2022-08-30T04:09:01;25.10;57.50
49373;DHT22;44113;38.408;-122.974;2022-08-30T04:11:28;25.10;57.60
49373;DHT22;44113;38.408;-122.974;2022-08-30T04:13:55;25.10;57.40
49373;DHT22;44113;38.408;-122.974;2022-08-30T04:16:23;25.10;57.40
49373;DHT22;44113;38.408;-122.974;2022-08-30T04:18:49;25.10;57.40
49373;DHT22;44113;38.408;-122.974;2022-08-30T04:21:17;25.10;57.40
49373;DHT22;44113;38.408;-122.974;2022-08-30T04:23:44;25.10;57.50
49373;DHT22;44113;38.408;-122.974;2022-08-30T04:26:12;25.10;57.30
49373;DHT22;44113;38.408;-122.974;2022-08-30T04:28:38;25.10;57.50
49373;DHT22;44113;38.408;-122.974;2022-08-30T04:31:11;25.00;57.50
49373;DHT22;44113;38.408;-122.974;2022-08-30T04:33:38;25.10;57.50
49373;DHT22;44113;38.408;-122.974;2022-08-30T04:36:07;25.00;57.40
49373;DHT22;44113;38.408;-122.974;2022-08-30T04:38:36;25.10;57.50
49373;DHT22;44113;38.408;-122.974;2022-08-30T04:41:15;25.00;57.60
49373;DHT22;44113;38.408;-122.974;2022-08-30T04:43:44;25.00;57.60
49373;DHT22;44113;38.408;-122.974;2022-08-30T04:46:12;24.90;57.60
49373;DHT22;44113;38.408;-122.974;2022-08-30T04:48:39;24.90;57.60
49373;DHT22;44113;38.408;-122.974;2022-08-30T04:51:08;24.90;57.60
49373;DHT22;44113;38.408;-122.974;2022-08-30T04:53:35;24.90;57.70
49373;DHT22;44113;38.408;-122.974;2022-08-30T04:56:11;24.90;57.80
49373;DHT22;44113;38.408;-122.974;2022-08-30T04:58:42;24.90;57.70
49373;DHT22;44113;38.408;-122.974;2022-08-30T05:01:17;24.90;57.70
49373;DHT22;44113;38.408;-122.974;2022-08-30T05:03:49;24.90;57.70
49373;DHT22;44113;38.408;-122.974;2022-08-30T05:06:17;24.80;57.90
49373;DHT22;44113;38.408;-122.974;2022-08-30T05:08:44;24.80;57.80
49373;DHT22;44113;38.408;-122.974;2022-08-30T05:11:11;24.80;57.80
49373;DHT22;44113;38.408;-122.974;2022-08-30T05:13:37;24.80;57.90
49373;DHT22;44113;38.408;-122.974;2022-08-30T05:16:06;24.80;57.90
49373;DHT22;44113;38.408;-122.974;2022-08-30T05:18:34;24.80;57.90
49373;DHT22;44113;38.408;-122.974;2022-08-30T05:21:21;24.70;57.80
49373;DHT22;44113;38.408;-122.974;2022-08-30T05:23:49;24.70;58.60
49373;DHT22;44113;38.408;-122.974;2022-08-30T05:26:28;24.60;58.00
49373;DHT22;44113;38.408;-122.974;2022-08-30T05:28:55;24.70;58.00
49373;DHT22;44113;38.408;-122.974;2022-08-30T05:31:25;24.60;58.00
49373;DHT22;44113;38.408;-122.974;2022-08-30T05:33:54;24.70;58.10
49373;DHT22;44113;38.408;-122.974;2022-08-30T05:36:24;24.70;58.00
49373;DHT22;44113;38.408;-122.974;2022-08-30T05:38:52;24.60;57.90
49373;DHT22;44113;38.408;-122.974;2022-08-30T05:41:21;24.60;57.90
49373;DHT22;44113;38.408;-122.974;2022-08-30T05:43:51;24.60;57.90
49373;DHT22;44113;38.408;-122.974;2022-08-30T05:46:17;24.60;58.10
49373;DHT22;44113;38.408;-122.974;2022-08-30T05:48:45;24.60;58.00
49373;DHT22;44113;38.408;-122.974;2022-08-30T05:51:14;24.60;58.00
49373;DHT22;44113;38.408;-122.974;2022-08-30T05:53:43;24.50;58.10
49373;DHT22;44113;38.408;-122.974;2022-08-30T05:56:12;24.40;58.10
49373;DHT22;44113;38.408;-122.974;2022-08-30T05:58:39;24.50;58.20
49373;DHT22;44113;38.408;-122.974;2022-08-30T06:01:17;24.40;58.00
49373;DHT22;44113;38.408;-122.974;2022-08-30T06:03:43;24.40;58.20
49373;DHT22;44113;38.408;-122.974;2022-08-30T06:06:10;24.50;58.10
49373;DHT22;44113;38.408;-122.974;2022-08-30T06:08:36;24.50;58.10
49373;DHT22;44113;38.408;-122.974;2022-08-30T06:11:03;24.50;58.90
49373;DHT22;44113;38.408;-122.974;2022-08-30T06:13:29;24.40;58.10
49373;DHT22;44113;38.408;-122.974;2022-08-30T06:15:57;24.40;58.10
49373;DHT22;44113;38.408;-122.974;2022-08-30T06:18:23;24.40;58.20
49373;DHT22;44113;38.408;-122.974;2022-08-30T06:20:51;24.40;58.10
49373;DHT22;44113;38.408;-122.974;2022-08-30T06:23:18;24.40;58.20
49373;DHT22;44113;38.408;-122.974;2022-08-30T06:25:44;24.40;58.20
49373;DHT22;44113;38.408;-122.974;2022-08-30T06:28:11;24.30;58.30
49373;DHT22;44113;38.408;-122.974;2022-08-30T06:30:40;24.30;58.30
49373;DHT22;44113;38.408;-122.974;2022-08-30T06:33:09;24.20;58.30
49373;DHT22;44113;38.408;-122.974;2022-08-30T06:35:35;24.30;58.30
49373;DHT22;44113;38.408;-122.974;2022-08-30T06:38:03;24.20;58.40
49373;DHT22;44113;38.408;-122.974;2022-08-30T06:40:30;24.20;58.40
49373;DHT22;44113;38.408;-122.974;2022-08-30T06:42:56;24.10;58.40
49373;DHT22;44113;38.408;-122.974;2022-08-30T06:45:23;24.20;58.50
49373;DHT22;44113;38.408;-122.974;2022-08-30T06:47:49;24.20;58.50
49373;DHT22;44113;38.408;-122.974;2022-08-30T06:50:16;24.20;58.40
49373;DHT22;44113;38.408;-122.974;2022-08-30T06:52:44;24.20;58.40
49373;DHT22;44113;38.408;-122.974;2022-08-30T06:55:13;24.20;58.90
49373;DHT22;44113;38.408;-122.974;2022-08-30T06:57:41;24.10;58.40
49373;DHT22;44113;38.408;-122.974;2022-08-30T07:00:10;24.10;58.30
49373;DHT22;44113;38.408;-122.974;2022-08-30T07:02:38;24.10;58.40
49373;DHT22;44113;38.408;-122.974;2022-08-30T07:05:06;24.10;58.30
49373;DHT22;44113;38.408;-122.974;2022-08-30T07:07:34;24.10;58.10
49373;DHT22;44113;38.408;-122.974;2022-08-30T07:10:07;24.10;58.30
49373;DHT22;44113;38.408;-122.974;2022-08-30T07:12:34;24.10;58.10
49373;DHT22;44113;38.408;-122.974;2022-08-30T07:15:03;24.10;58.20
49373;DHT22;44113;38.408;-122.974;2022-08-30T07:17:30;24.00;58.20
49373;DHT22;44113;38.408;-122.974;2022-08-30T07:20:15;24.00;58.40
49373;DHT22;44113;38.408;-122.974;2022-08-30T07:22:42;24.00;58.40
49373;DHT22;44113;38.408;-122.974;2022-08-30T07:25:09;24.00;58.40
49373;DHT22;44113;38.408;-122.974;2022-08-30T07:27:35;24.00;58.20
49373;DHT22;44113;38.408;-122.974;2022-08-30T07:30:04;24.00;58.20
49373;DHT22;44113;38.408;-122.974;2022-08-30T07:32:31;24.00;58.20
49373;DHT22;44113;38.408;-122.974;2022-08-30T07:34:57;23.90;58.30
49373;DHT22;44113;38.408;-122.974;2022-08-30T07:37:24;23.90;58.50
49373;DHT22;44113;38.408;-122.974;2022-08-30T07:39:52;23.90;58.40
49373;DHT22;44113;38.408;-122.974;2022-08-30T07:42:19;23.90;58.30
49373;DHT22;44113;38.408;-122.974;2022-08-30T07:44:45;23.90;58.20
49373;DHT22;44113;38.408;-122.974;2022-08-30T07:47:12;23.90;58.40
49373;DHT22;44113;38.408;-122.974;2022-08-30T07:49:39;23.90;58.20
49373;DHT22;44113;38.408;-122.974;2022-08-30T07:52:05;23.90;58.20
49373;DHT22;44113;38.408;-122.974;2022-08-30T07:54:32;23.90;58.20
49373;DHT22;44113;38.408;-122.974;2022-08-30T07:56:59;23.90;58.40
49373;DHT22;44113;38.408;-122.974;2022-08-30T07:59:26;23.90;58.40
49373;DHT22;44113;38.408;-122.974;2022-08-30T08:01:52;23.80;58.40
49373;DHT22;44113;38.408;-122.974;2022-08-30T08:04:19;23.80;58.50
49373;DHT22;44113;38.408;-122.974;2022-08-30T08:06:45;23.80;58.60
49373;DHT22;44113;38.408;-122.974;2022-08-30T08:09:12;23.70;58.60
49373;DHT22;44113;38.408;-122.974;2022-08-30T08:11:38;23.70;58.60
49373;DHT22;44113;38.408;-122.974;2022-08-30T08:14:06;23.80;58.60
49373;DHT22;44113;38.408;-122.974;2022-08-30T08:16:34;23.70;58.60
49373;DHT22;44113;38.408;-122.974;2022-08-30T08:19:01;23.70;58.60
49373;DHT22;44113;38.408;-122.974;2022-08-30T08:21:29;23.70;58.70
49373;DHT22;44113;38.408;-122.974;2022-08-30T08:23:55;23.70;58.60
49373;DHT22;44113;38.408;-122.974;2022-08-30T08:26:22;23.80;58.50
49373;DHT22;44113;38.408;-122.974;2022-08-30T08:28:48;23.80;58.60
49373;DHT22;44113;38.408;-122.974;2022-08-30T08:31:21;23.80;58.60
49373;DHT22;44113;38.408;-122.974;2022-08-30T08:33:48;23.70;58.60
49373;DHT22;44113;38.408;-122.974;2022-08-30T08:36:16;23.70;58.50
49373;DHT22;44113;38.408;-122.974;2022-08-30T08:38:43;23.70;58.50
49373;DHT22;44113;38.408;-122.974;2022-08-30T08:43:53;23.70;58.40
49373;DHT22;44113;38.408;-122.974;2022-08-30T08:48:49;23.60;58.40
49373;DHT22;44113;38.408;-122.974;2022-08-30T08:51:19;23.60;58.60
49373;DHT22;44113;38.408;-122.974;2022-08-30T08:54:11;23.60;59.20
49373;DHT22;44113;38.408;-122.974;2022-08-30T08:56:39;23.50;58.60
49373;DHT22;44113;38.408;-122.974;2022-08-30T08:59:07;23.50;59.30
49373;DHT22;44113;38.408;-122.974;2022-08-30T09:01:35;23.50;58.80
49373;DHT22;44113;38.408;-122.974;2022-08-30T09:04:09;23.50;58.70
49373;DHT22;44113;38.408;-122.974;2022-08-30T09:06:59;23.50;58.70
49373;DHT22;44113;38.408;-122.974;2022-08-30T09:09:35;23.50;58.70
49373;DHT22;44113;38.408;-122.974;2022-08-30T09:12:03;23.50;58.70
49373;DHT22;44113;38.408;-122.974;2022-08-30T09:14:38;23.50;58.60
49373;DHT22;44113;38.408;-122.974;2022-08-30T09:17:08;23.40;58.50
49373;DHT22;44113;38.408;-122.974;2022-08-30T09:27:34;23.40;58.70
49373;DHT22;44113;38.408;-122.974;2022-08-30T09:32:40;23.30;58.70
49373;DHT22;44113;38.408;-122.974;2022-08-30T09:35:12;23.30;58.60
49373;DHT22;44113;38.408;-122.974;2022-08-30T09:37:55;23.40;58.70
49373;DHT22;44113;38.408;-122.974;2022-08-30T09:40:39;23.40;58.50
49373;DHT22;44113;38.408;-122.974;2022-08-30T09:48:36;23.40;58.50
49373;DHT22;44113;38.408;-122.974;2022-08-30T09:54:00;23.20;58.70
49373;DHT22;44113;38.408;-122.974;2022-08-30T09:56:38;23.20;58.70
49373;DHT22;44113;38.408;-122.974;2022-08-30T09:59:36;23.20;58.80
49373;DHT22;44113;38.408;-122.974;2022-08-30T10:19:59;23.10;58.80
49373;DHT22;44113;38.408;-122.974;2022-08-30T10:22:23;23.10;58.80
49373;DHT22;44113;38.408;-122.974;2022-08-30T10:25:20;23.00;58.80
49373;DHT22;44113;38.408;-122.974;2022-08-30T10:28:06;23.00;58.90
49373;DHT22;44113;38.408;-122.974;2022-08-30T10:30:38;23.00;58.90
49373;DHT22;44113;38.408;-122.974;2022-08-30T10:35:47;23.00;58.90
49373;DHT22;44113;38.408;-122.974;2022-08-30T10:41:21;23.00;58.80
49373;DHT22;44113;38.408;-122.974;2022-08-30T10:49:31;22.90;58.90
49373;DHT22;44113;38.408;-122.974;2022-08-30T10:55:07;22.90;58.90
49373;DHT22;44113;38.408;-122.974;2022-08-30T10:57:34;22.80;58.90
49373;DHT22;44113;38.408;-122.974;2022-08-30T11:00:09;22.80;58.90
49373;DHT22;44113;38.408;-122.974;2022-08-30T11:02:57;22.90;59.00
49373;DHT22;44113;38.408;-122.974;2022-08-30T11:08:27;22.90;59.00
49373;DHT22;44113;38.408;-122.974;2022-08-30T11:13:34;22.80;58.80
49373;DHT22;44113;38.408;-122.974;2022-08-30T11:16:10;22.80;58.80
49373;DHT22;44113;38.408;-122.974;2022-08-30T11:18:49;22.80;58.90
49373;DHT22;44113;38.408;-122.974;2022-08-30T11:21:40;22.80;59.00
49373;DHT22;44113;38.408;-122.974;2022-08-30T11:24:07;22.80;58.90
49373;DHT22;44113;38.408;-122.974;2022-08-30T11:29:33;22.70;58.90
49373;DHT22;44113;38.408;-122.974;2022-08-30T11:37:33;22.70;59.00
49373;DHT22;44113;38.408;-122.974;2022-08-30T11:42:49;22.80;58.80
49373;DHT22;44113;38.408;-122.974;2022-08-30T11:47:55;22.70;58.80
49373;DHT22;44113;38.408;-122.974;2022-08-30T11:50:38;22.70;59.00
49373;DHT22;44113;38.408;-122.974;2022-08-30T11:56:17;22.60;58.90
49373;DHT22;44113;38.408;-122.974;2022-08-30T12:01:32;22.50;59.20
49373;DHT22;44113;38.408;-122.974;2022-08-30T12:04:07;22.50;59.20
49373;DHT22;44113;38.408;-122.974;2022-08-30T12:06:45;22.50;59.20
49373;DHT22;44113;38.408;-122.974;2022-08-30T12:12:04;22.60;59.00
49373;DHT22;44113;38.408;-122.974;2022-08-30T12:14:52;22.50;58.90
49373;DHT22;44113;38.408;-122.974;2022-08-30T12:20:27;22.50;59.10
49373;DHT22;44113;38.408;-122.974;2022-08-30T12:22:55;22.50;59.00
49373;DHT22;44113;38.408;-122.974;2022-08-30T12:25:31;22.40;59.10
49373;DHT22;44113;38.408;-122.974;2022-08-30T12:28:12;22.50;59.10
49373;DHT22;44113;38.408;-122.974;2022-08-30T12:30:40;22.40;59.10
49373;DHT22;44113;38.408;-122.974;2022-08-30T12:33:11;22.40;59.20
49373;DHT22;44113;38.408;-122.974;2022-08-30T12:35:41;22.40;59.20
49373;DHT22;44113;38.408;-122.974;2022-08-30T12:38:17;22.40;59.30
49373;DHT22;44113;38.408;-122.974;2022-08-30T12:40:52;22.40;59.10
49373;DHT22;44113;38.408;-122.974;2022-08-30T12:43:30;22.40;59.00
49373;DHT22;44113;38.408;-122.974;2022-08-30T12:45:59;22.50;59.00
49373;DHT22;44113;38.408;-122.974;2022-08-30T12:48:28;22.40;59.00
49373;DHT22;44113;38.408;-122.974;2022-08-30T12:50:59;22.50;58.90
49373;DHT22;44113;38.408;-122.974;2022-08-30T12:53:37;22.50;58.80
49373;DHT22;44113;38.408;-122.974;2022-08-30T12:56:14;22.50;58.90
49373;DHT22;44113;38.408;-122.974;2022-08-30T12:58:51;22.40;58.90
49373;DHT22;44113;38.408;-122.974;2022-08-30T13:01:27;22.40;58.90
49373;DHT22;44113;38.408;-122.974;2022-08-30T13:06:58;22.30;59.10
49373;DHT22;44113;38.408;-122.974;2022-08-30T13:09:38;22.30;59.20
49373;DHT22;44113;38.408;-122.974;2022-08-30T13:12:21;22.30;59.20
49373;DHT22;44113;38.408;-122.974;2022-08-30T13:14:48;22.30;59.10
49373;DHT22;44113;38.408;-122.974;2022-08-30T13:17:26;22.30;59.10
49373;DHT22;44113;38.408;-122.974;2022-08-30T13:20:03;22.30;59.10
49373;DHT22;44113;38.408;-122.974;2022-08-30T13:22:35;22.40;59.00
49373;DHT22;44113;38.408;-122.974;2022-08-30T13:25:05;22.30;58.90
49373;DHT22;44113;38.408;-122.974;2022-08-30T13:27:33;22.30;59.00
49373;DHT22;44113;38.408;-122.974;2022-08-30T13:30:13;22.30;58.80
49373;DHT22;44113;38.408;-122.974;2022-08-30T13:32:41;22.30;58.90
49373;DHT22;44113;38.408;-122.974;2022-08-30T13:35:09;22.20;59.00
49373;DHT22;44113;38.408;-122.974;2022-08-30T13:37:37;22.20;59.10
49373;DHT22;44113;38.408;-122.974;2022-08-30T13:40:08;22.20;59.20
49373;DHT22;44113;38.408;-122.974;2022-08-30T13:42:35;22.20;59.10
49373;DHT22;44113;38.408;-122.974;2022-08-30T13:45:03;22.20;59.00
49373;DHT22;44113;38.408;-122.974;2022-08-30T13:47:30;22.30;59.00
49373;DHT22;44113;38.408;-122.974;2022-08-30T13:49:56;22.20;58.90
49373;DHT22;44113;38.408;-122.974;2022-08-30T13:52:22;22.20;58.80
49373;DHT22;44113;38.408;-122.974;2022-08-30T13:54:54;22.20;58.90
49373;DHT22;44113;38.408;-122.974;2022-08-30T13:57:24;22.20;59.00
49373;DHT22;44113;38.408;-122.974;2022-08-30T13:59:51;22.20;59.00
49373;DHT22;44113;38.408;-122.974;2022-08-30T14:02:17;22.20;59.10
49373;DHT22;44113;38.408;-122.974;2022-08-30T14:04:44;22.20;58.90
49373;DHT22;44113;38.408;-122.974;2022-08-30T14:07:10;22.20;58.90
49373;DHT22;44113;38.408;-122.974;2022-08-30T14:09:37;22.20;59.10
49373;DHT22;44113;38.408;-122.974;2022-08-30T14:12:03;22.10;59.30
49373;DHT22;44113;38.408;-122.974;2022-08-30T14:14:30;22.10;59.30
49373;DHT22;44113;38.408;-122.974;2022-08-30T14:16:56;22.20;59.20
49373;DHT22;44113;38.408;-122.974;2022-08-30T14:19:23;22.20;59.10
49373;DHT22;44113;38.408;-122.974;2022-08-30T14:21:49;22.20;59.20
49373;DHT22;44113;38.408;-122.974;2022-08-30T14:24:16;22.10;59.00
49373;DHT22;44113;38.408;-122.974;2022-08-30T14:26:46;22.10;59.20
49373;DHT22;44113;38.408;-122.974;2022-08-30T14:29:16;22.20;59.00
49373;DHT22;44113;38.408;-122.974;2022-08-30T14:31:43;22.10;59.10
49373;DHT22;44113;38.408;-122.974;2022-08-30T14:34:10;22.00;59.10
49373;DHT22;44113;38.408;-122.974;2022-08-30T14:36:39;22.10;59.10
49373;DHT22;44113;38.408;-122.974;2022-08-30T14:39:09;22.00;59.10
49373;DHT22;44113;38.408;-122.974;2022-08-30T14:41:41;22.00;59.30
49373;DHT22;44113;38.408;-122.974;2022-08-30T14:44:09;22.00;59.30
49373;DHT22;44113;38.408;-122.974;2022-08-30T14:46:35;22.00;59.30
49373;DHT22;44113;38.408;-122.974;2022-08-30T14:49:02;22.00;59.20
49373;DHT22;44113;38.408;-122.974;2022-08-30T14:51:28;22.00;59.10
49373;DHT22;44113;38.408;-122.974;2022-08-30T14:53:54;22.00;59.10
49373;DHT22;44113;38.408;-122.974;2022-08-30T14:56:22;22.00;59.20
49373;DHT22;44113;38.408;-122.974;2022-08-30T14:58:50;22.00;59.10
49373;DHT22;44113;38.408;-122.974;2022-08-30T15:01:18;22.00;59.10
49373;DHT22;44113;38.408;-122.974;2022-08-30T15:03:45;21.90;59.30
49373;DHT22;44113;38.408;-122.974;2022-08-30T15:06:12;22.00;59.20
49373;DHT22;44113;38.408;-122.974;2022-08-30T15:08:39;22.00;59.10
49373;DHT22;44113;38.408;-122.974;2022-08-30T15:11:13;21.90;59.30
49373;DHT22;44113;38.408;-122.974;2022-08-30T15:13:41;21.90;59.30
49373;DHT22;44113;38.408;-122.974;2022-08-30T15:16:22;21.80;59.50
49373;DHT22;44113;38.408;-122.974;2022-08-30T15:18:48;21.90;59.50
49373;DHT22;44113;38.408;-122.974;2022-08-30T15:21:29;21.90;59.30
49373;DHT22;44113;38.408;-122.974;2022-08-30T15:23:57;21.90;59.30
49373;DHT22;44113;38.408;-122.974;2022-08-30T15:26:24;21.90;59.20
49373;DHT22;44113;38.408;-122.974;2022-08-30T15:28:51;21.90;59.20
49373;DHT22;44113;38.408;-122.974;2022-08-30T15:31:19;21.90;59.20
49373;DHT22;44113;38.408;-122.974;2022-08-30T15:33:45;21.90;59.10
49373;DHT22;44113;38.408;-122.974;2022-08-30T15:36:12;21.90;59.10
49373;DHT22;44113;38.408;-122.974;2022-08-30T15:38:39;21.90;59.10
49373;DHT22;44113;38.408;-122.974;2022-08-30T15:41:09;21.90;59.30
49373;DHT22;44113;38.408;-122.974;2022-08-30T15:43:38;21.80;59.40
49373;DHT22;44113;38.408;-122.974;2022-08-30T15:48:45;21.90;59.60
49373;DHT22;44113;38.408;-122.974;2022-08-30T15:51:12;21.90;59.20
49373;DHT22;44113;38.408;-122.974;2022-08-30T15:53:39;21.90;59.20
49373;DHT22;44113;38.408;-122.974;2022-08-30T15:56:06;21.90;59.20
49373;DHT22;44113;38.408;-122.974;2022-08-30T15:58:33;21.80;59.20
49373;DHT22;44113;38.408;-122.974;2022-08-30T16:01:00;21.90;59.30
49373;DHT22;44113;38.408;-122.974;2022-08-30T16:03:27;21.80;59.20
49373;DHT22;44113;38.408;-122.974;2022-08-30T16:05:53;21.80;59.20
49373;DHT22;44113;38.408;-122.974;2022-08-30T16:08:20;21.80;59.30
49373;DHT22;44113;38.408;-122.974;2022-08-30T16:10:48;21.60;59.40
49373;DHT22;44113;38.408;-122.974;2022-08-30T16:13:15;21.70;59.50
49373;DHT22;44113;38.408;-122.974;2022-08-30T16:15:42;21.70;59.70
49373;DHT22;44113;38.408;-122.974;2022-08-30T16:18:12;21.70;59.70
49373;DHT22;44113;38.408;-122.974;2022-08-30T16:20:40;21.70;59.60
49373;DHT22;44113;38.408;-122.974;2022-08-30T16:23:08;21.70;59.60
49373;DHT22;44113;38.408;-122.974;2022-08-30T16:25:36;21.80;59.40
49373;DHT22;44113;38.408;-122.974;2022-08-30T16:28:03;21.80;59.50
49373;DHT22;44113;38.408;-122.974;2022-08-30T16:30:30;21.70;59.50
49373;DHT22;44113;38.408;-122.974;2022-08-30T16:32:57;21.80;59.40
49373;DHT22;44113;38.408;-122.974;2022-08-30T16:35:23;21.70;59.30
49373;DHT22;44113;38.408;-122.974;2022-08-30T16:37:50;21.80;59.40